Latest Coastal Weather Observations for Noarlunga

IDS60701

Issued at 12:11 pm CST Tuesday 28 June 2022 (issued every 10 minutes, with the page automatically refreshed every 10 minutes)

About coastal observations | Map of coastal stations | Coastal observations for SA | Marine services | Other Formats
Station Details ID: 023885 Name: NOARLUNGA Lat: -35.16 Lon: 138.51 Height: 55.0 m
Data from the previous 72 hours. | See also: Recent months at Noarlunga
Date/Time
CST
Wind Sea
Height
m
Swell Vis
km
Cloud Weather Temp
°C
Press
MSL
hPa
Rain since
9am
mm
Dir  Spd
kts
Gust
kts
Height
m
Period
s
Dir
28/12:00pm N 10 15 - - - - - - - 14.1 - 0.0
28/11:30am N 11 17 - - - - - - - 13.4 - 0.0
28/11:00am N 11 18 - - - - - - - 12.9 - 0.0
28/10:30am N 10 16 - - - - - - - 12.5 - 0.0
28/10:00am N 9 16 - - - - - - - 12.4 - 0.0
28/09:30am N 8 13 - - - - - - - 12.0 - 0.0
28/09:00am NNE 10 15 - - - - - - - 11.4 - 0.0
28/08:30am NNE 7 10 - - - - - - - 10.6 - 0.0
28/08:00am NNE 7 10 - - - - - - - 9.8 - 0.0
28/07:30am NNE 8 12 - - - - - - - 9.3 - 0.0
28/07:00am NNE 7 10 - - - - - - - 9.0 - 0.0
28/06:30am NE 9 11 - - - - - - - 8.7 - 0.0
28/06:00am NE 8 11 - - - - - - - 8.7 - 0.0
28/05:30am NE 7 10 - - - - - - - 8.5 - 0.0
28/05:00am NNE 7 10 - - - - - - - 9.0 - 0.0
28/04:30am NE 7 9 - - - - - - - 8.7 - 0.0
28/04:00am NE 5 6 - - - - - - - 8.5 - 0.0
28/03:30am NE 6 8 - - - - - - - 8.6 - 0.0
28/03:00am NE 7 9 - - - - - - - 8.7 - 0.0
28/02:30am NE 6 7 - - - - - - - 8.6 - 0.0
28/02:00am NE 3 5 - - - - - - - 8.1 - 0.0
28/01:30am NE 4 6 - - - - - - - 8.3 - 0.0
28/01:00am ENE 3 5 - - - - - - - 7.8 - 0.0
28/12:30am NE 4 6 - - - - - - - 8.5 - 0.0
28/12:00am ENE 5 7 - - - - - - - 7.9 - 0.0
 
Date/Time
CST
Wind Sea
Height
m
Swell Vis
km
Cloud Weather Temp
°C
Press
MSL
hPa
Rain since
9am
mm
Dir  Spd
kts
Gust
kts
Height
m
Period
s
Dir
27/11:30pm ENE 5 6 - - - - - - - 6.8 - 0.0
27/11:00pm ENE 3 4 - - - - - - - 6.4 - 0.0
27/10:30pm ENE 2 3 - - - - - - - 7.0 - 0.0
27/10:00pm ENE 3 4 - - - - - - - 7.6 - 0.0
27/09:30pm ENE 4 5 - - - - - - - 7.6 - 0.0
27/09:00pm ENE 4 6 - - - - - - - 7.7 - 0.0
27/08:30pm CALM 0 0 - - - - - - - 7.4 - 0.0
27/08:00pm E 2 3 - - - - - - - 7.9 - 0.0
27/07:30pm CALM 0 0 - - - - - - - 8.1 - 0.0
27/07:00pm NE 2 2 - - - - - - - 8.5 - 0.0
27/06:30pm CALM 0 0 - - - - - - - 9.3 - 0.0
27/06:00pm CALM 0 0 - - - - - - - 9.9 - 0.0
27/05:30pm WSW 1 1 - - - - - - - 10.5 - 0.0
27/05:00pm W 1 3 - - - - - - - 11.5 - 0.0
27/04:30pm WNW 3 4 - - - - - - - 12.2 - 0.0
27/04:00pm WNW 3 4 - - - - - - - 12.5 - 0.0
27/03:30pm WNW 3 5 - - - - - - - 12.9 - 0.0
27/03:00pm WNW 5 8 - - - - - - - 12.7 - 0.0
27/02:30pm WNW 5 7 - - - - - - - 12.8 - 0.0
27/02:00pm WNW 3 6 - - - - - - - 13.2 - 0.0
27/01:30pm WNW 4 7 - - - - - - - 13.0 - 0.0
27/01:00pm NW 2 5 - - - - - - - 12.6 - 0.0
27/12:30pm W 3 5 - - - - - - - 12.1 - 0.0
27/12:00pm NW 4 6 - - - - - - - 12.2 - 0.0
27/11:30am N 3 6 - - - - - - - 12.4 - 0.0
27/11:00am NE 2 3 - - - - - - - 12.6 - 0.0
27/10:30am NNE 2 4 - - - - - - - 13.2 - 0.0
27/10:00am NNE 3 5 - - - - - - - 12.3 - 0.0
27/09:30am NNE 2 4 - - - - - - - 11.9 - 0.0
27/09:00am NE 3 4 - - - - - - - 10.9 - 0.2
27/08:30am ENE 3 5 - - - - - - - 9.6 - 0.2
27/08:00am ENE 5 6 - - - - - - - 8.2 - 0.2
27/07:30am NE 5 6 - - - - - - - 8.0 - 0.2
27/07:00am NE 5 6 - - - - - - - 8.4 - 0.2
27/06:30am ENE 1 4 - - - - - - - 8.3 - 0.2
27/06:00am ENE 1 4 - - - - - - - 7.9 - 0.2
27/05:30am CALM 0 0 - - - - - - - 7.2 - 0.2
27/05:00am ENE 2 3 - - - - - - - 6.9 - 0.2
27/04:30am CALM 0 0 - - - - - - - 7.0 - 0.2
27/04:00am NE 4 6 - - - - - - - 7.7 - 0.2
27/03:30am ENE 1 4 - - - - - - - 7.4 - 0.2
27/03:00am ENE 3 4 - - - - - - - 7.5 - 0.2
27/02:30am E 1 5 - - - - - - - 7.9 - 0.2
27/02:00am E 5 7 - - - - - - - 6.9 - 0.2
27/01:30am CALM 0 0 - - - - - - - 6.9 - 0.2
27/01:00am CALM 0 0 - - - - - - - 6.8 - 0.2
27/12:30am CALM 0 0 - - - - - - - 7.2 - 0.2
27/12:00am E 3 3 - - - - - - - 7.5 - 0.2
 
Date/Time
CST
Wind Sea
Height
m
Swell Vis
km
Cloud Weather Temp
°C
Press
MSL
hPa
Rain since
9am
mm
Dir  Spd
kts
Gust
kts
Height
m
Period
s
Dir
26/11:30pm E 3 5 - - - - - - - 7.5 - 0.2
26/11:00pm ESE 4 6 - - - - - - - 8.0 - 0.2
26/10:30pm E 4 5 - - - - - - - 7.4 - 0.2
26/10:00pm ESE 3 4 - - - - - - - 7.6 - 0.2
26/09:30pm SE 4 5 - - - - - - - 8.2 - 0.2
26/09:00pm SE 5 6 - - - - - - - 8.5 - 0.2
26/08:30pm SE 3 4 - - - - - - - 8.3 - 0.2
26/08:00pm SE 4 5 - - - - - - - 9.0 - 0.2
26/07:30pm SE 5 6 - - - - - - - 9.6 - 0.2
26/07:00pm SSE 5 7 - - - - - - - 9.7 - 0.2
26/06:30pm SSE 4 5 - - - - - - - 9.9 - 0.2
26/06:00pm SSE 5 8 - - - - - - - 10.9 - 0.2
26/05:30pm SSE 5 10 - - - - - - - 11.6 - 0.2
26/05:00pm S 6 11 - - - - - - - 12.8 - 0.2
26/04:30pm SSW 7 10 - - - - - - - 13.6 - 0.2
26/04:00pm SW 8 13 - - - - - - - 13.8 - 0.2
26/03:30pm SW 6 9 - - - - - - - 14.1 - 0.2
26/03:00pm SSW 8 13 - - - - - - - 13.9 - 0.2
26/02:30pm SSW 7 11 - - - - - - - 13.2 - 0.2
26/02:00pm SW 6 10 - - - - - - - 14.0 - 0.2
26/01:30pm SW 8 13 - - - - - - - 14.7 - 0.2
26/01:00pm WSW 8 12 - - - - - - - 14.4 - 0.2
26/12:30pm WSW 8 12 - - - - - - - 14.8 - 0.2
26/12:00pm WSW 8 12 - - - - - - - 14.5 - 0.2
26/11:30am W 7 11 - - - - - - - 14.8 - 0.2
26/11:00am W 6 10 - - - - - - - 14.4 - 0.2
26/10:30am WNW 5 8 - - - - - - - 14.2 - 0.2
26/10:00am WNW 4 7 - - - - - - - 13.8 - 0.2
26/09:30am NW 2 6 - - - - - - - 12.6 - 0.2
26/09:00am WNW 7 13 - - - - - - Rain 11.7 - 1.2
26/08:30am NW 3 5 - - - - - - - 12.5 - 1.0
26/08:00am NW 4 6 - - - - - - - 11.9 - 1.0
26/07:30am NW 4 7 - - - - - - - 11.7 - 1.0
26/07:00am NW 3 5 - - - - - - - 11.2 - 1.0
26/06:30am NW 3 5 - - - - - - - 11.7 - 1.0
26/06:00am WNW 5 8 - - - - - - - 12.5 - 1.0
26/05:30am WNW 4 7 - - - - - - - 12.6 - 1.0
26/05:00am WNW 4 7 - - - - - - - 12.1 - 1.0
26/04:30am NW 6 9 - - - - - - - 12.2 - 1.0
26/04:00am NW 5 7 - - - - - - - 12.3 - 1.0
26/03:30am NW 5 9 - - - - - - - 12.4 - 1.0
26/03:00am N 3 5 - - - - - - - 12.0 - 1.0
26/02:30am NNW 2 3 - - - - - - - 11.6 - 1.0
26/02:00am NNW 3 5 - - - - - - - 11.6 - 1.0
26/01:30am NNW 5 7 - - - - - - - 12.1 - 1.0
26/01:00am NW 4 6 - - - - - - - 12.2 - 1.0
26/12:30am NW 5 7 - - - - - - - 12.2 - 1.0
26/12:00am NW 5 8 - - - - - - Recent precip. 12.2 - 1.0
 
Date/Time
CST
Wind Sea
Height
m
Swell Vis
km
Cloud Weather Temp
°C
Press
MSL
hPa
Rain since
9am
mm
Dir  Spd
kts
Gust
kts
Height
m
Period
s
Dir
25/11:30pm WNW 5 10 - - - - - - - 12.4 - 1.0
25/11:00pm NW 6 9 - - - - - - - 12.6 - 0.8
25/10:30pm NNW 7 11 - - - - - - - 12.9 - 0.2
25/10:00pm NNW 8 12 - - - - - - - 12.8 - 0.2
25/09:30pm N 8 11 - - - - - - - 13.1 - 0.2
25/09:00pm N 7 11 - - - - - - - 13.2 - 0.2
25/08:30pm NNW 6 10 - - - - - - - 12.9 - 0.2
25/08:00pm NW 7 10 - - - - - - - 12.5 - 0.2
25/07:30pm NNW 6 11 - - - - - - - 12.5 - 0.2
25/07:00pm N 6 10 - - - - - - - 12.4 - 0.2
25/06:30pm N 6 7 - - - - - - - 11.8 - 0.2
25/06:00pm N 6 8 - - - - - - Recent precip. 12.0 - 0.2
25/05:30pm N 4 6 - - - - - - - 11.9 - 0.2
25/05:00pm WNW 9 15 - - - - - - - 12.4 - 0.0
25/04:30pm NNW 7 13 - - - - - - - 14.2 - 0.0
25/04:00pm NW 10 15 - - - - - - - 14.7 - 0.0
25/03:30pm NW 9 19 - - - - - - - 14.1 - 0.0
25/03:00pm NNW 9 13 - - - - - - - 14.8 - 0.0
25/02:30pm N 11 15 - - - - - - - 15.1 - 0.0
25/02:00pm N 11 17 - - - - - - - 15.2 - 0.0
25/01:30pm NNW 12 18 - - - - - - - 15.2 - 0.0
25/01:00pm NW 10 17 - - - - - - - 15.5 - 0.0
25/12:30pm NNW 10 15 - - - - - - - 14.9 - 0.0

Other formats

Comma delimited format used in spreadsheet applications
http://www.bom.gov.au/fwo/IDS60701/IDS60701.94808.axf

JavaScript Object Notation format (JSON) in row-major order
http://www.bom.gov.au/fwo/IDS60701/IDS60701.94808.json

Data quality

Most of these data are generated automatically and are frequently updated. Quality checks on data are not normally performed. It is possible for incorrect values to appear. Refer to information at About Latest Weather Observations and please check the disclaimer before using these data.